sensor_id;sensor_type;location;lat;lon;timestamp;pressure;altitude;pressure_sealevel;temperature;humidity
14383;BME280;7275;50.328;8.720;2022-09-27T00:00:18;97737.91;;;16.14;54.58
14383;BME280;7275;50.328;8.720;2022-09-27T00:02:46;97736.06;;;16.15;54.68
14383;BME280;7275;50.328;8.720;2022-09-27T00:05:14;97740.59;;;16.14;54.73
14383;BME280;7275;50.328;8.720;2022-09-27T00:07:42;97736.91;;;16.15;54.68
14383;BME280;7275;50.328;8.720;2022-09-27T00:10:12;97741.97;;;16.18;54.71
14383;BME280;7275;50.328;8.720;2022-09-27T00:12:39;97740.88;;;16.21;54.62
14383;BME280;7275;50.328;8.720;2022-09-27T00:15:08;97732.56;;;16.24;54.71
14383;BME280;7275;50.328;8.720;2022-09-27T00:17:37;97732.56;;;16.24;54.60
14383;BME280;7275;50.328;8.720;2022-09-27T00:20:06;97728.94;;;16.25;54.70
14383;BME280;7275;50.328;8.720;2022-09-27T00:22:34;97719.94;;;16.26;54.63
14383;BME280;7275;50.328;8.720;2022-09-27T00:25:03;97723.47;;;16.26;54.48
14383;BME280;7275;50.328;8.720;2022-09-27T00:27:33;97726.13;;;16.26;54.63
14383;BME280;7275;50.328;8.720;2022-09-27T00:30:01;97718.13;;;16.26;54.51
14383;BME280;7275;50.328;8.720;2022-09-27T00:32:29;97723.47;;;16.26;54.64
14383;BME280;7275;50.328;8.720;2022-09-27T00:34:56;97718.13;;;16.26;54.59
14383;BME280;7275;50.328;8.720;2022-09-27T00:37:24;97712.78;;;16.26;54.55
14383;BME280;7275;50.328;8.720;2022-09-27T00:39:52;97714.63;;;16.26;54.61
14383;BME280;7275;50.328;8.720;2022-09-27T00:42:20;97717.44;;;16.24;54.61
14383;BME280;7275;50.328;8.720;2022-09-27T00:44:59;97715.63;;;16.25;54.60
14383;BME280;7275;50.328;8.720;2022-09-27T00:47:29;97705.75;;;16.25;54.56
14383;BME280;7275;50.328;8.720;2022-09-27T00:50:02;97703.09;;;16.25;54.57
14383;BME280;7275;50.328;8.720;2022-09-27T00:52:39;97695.94;;;16.26;54.50
14383;BME280;7275;50.328;8.720;2022-09-27T00:55:12;97701.44;;;16.24;54.50
14383;BME280;7275;50.328;8.720;2022-09-27T00:57:43;97704.09;;;16.24;54.46
14383;BME280;7275;50.328;8.720;2022-09-27T01:00:14;97693.44;;;16.24;54.59
14383;BME280;7275;50.328;8.720;2022-09-27T01:02:44;97698.91;;;16.23;54.59
14383;BME280;7275;50.328;8.720;2022-09-27T01:05:15;97684.03;;;16.20;54.40
14383;BME280;7275;50.328;8.720;2022-09-27T01:07:43;97692.19;;;16.19;54.60
14383;BME280;7275;50.328;8.720;2022-09-27T01:10:12;97691.34;;;16.18;54.65
14383;BME280;7275;50.328;8.720;2022-09-27T01:12:45;97696.78;;;16.17;54.67
14383;BME280;7275;50.328;8.720;2022-09-27T01:15:28;97688.94;;;16.15;54.60
14383;BME280;7275;50.328;8.720;2022-09-27T01:18:10;97684.47;;;16.16;54.66
14383;BME280;7275;50.328;8.720;2022-09-27T01:21:06;97684.59;;;16.14;54.93
14383;BME280;7275;50.328;8.720;2022-09-27T01:23:57;97694.56;;;16.12;54.75
14383;BME280;7275;50.328;8.720;2022-09-27T01:26:38;97692.88;;;16.11;54.62
14383;BME280;7275;50.328;8.720;2022-09-27T01:29:18;97686.69;;;16.11;54.80
14383;BME280;7275;50.328;8.720;2022-09-27T01:31:54;97695.53;;;16.11;54.71
14383;BME280;7275;50.328;8.720;2022-09-27T01:34:34;97692.72;;;16.13;54.74
14383;BME280;7275;50.328;8.720;2022-09-27T01:37:10;97682.91;;;16.13;54.79
14383;BME280;7275;50.328;8.720;2022-09-27T01:39:51;97677.31;;;16.16;54.70
14383;BME280;7275;50.328;8.720;2022-09-27T01:42:27;97676.19;;;16.19;54.80
14383;BME280;7275;50.328;8.720;2022-09-27T01:45:00;97682.22;;;16.21;54.67
14383;BME280;7275;50.328;8.720;2022-09-27T01:47:36;97679.25;;;16.24;54.67
14383;BME280;7275;50.328;8.720;2022-09-27T01:50:10;97679.94;;;16.26;54.78
14383;BME280;7275;50.328;8.720;2022-09-27T01:52:43;97680.66;;;16.28;54.46
14383;BME280;7275;50.328;8.720;2022-09-27T01:55:15;97678.84;;;16.28;54.61
14383;BME280;7275;50.328;8.720;2022-09-27T01:57:49;97671.81;;;16.27;54.56
14383;BME280;7275;50.328;8.720;2022-09-27T02:00:18;97680.50;;;16.29;54.65
14383;BME280;7275;50.328;8.720;2022-09-27T02:02:50;97682.19;;;16.30;54.68
14383;BME280;7275;50.328;8.720;2022-09-27T02:05:21;97669.72;;;16.31;54.52
14383;BME280;7275;50.328;8.720;2022-09-27T02:07:54;97682.91;;;16.32;54.70
14383;BME280;7275;50.328;8.720;2022-09-27T02:10:27;97680.09;;;16.34;54.65
14383;BME280;7275;50.328;8.720;2022-09-27T02:13:02;97681.78;;;16.35;54.51
14383;BME280;7275;50.328;8.720;2022-09-27T02:15:37;97683.44;;;16.36;54.64
14383;BME280;7275;50.328;8.720;2022-09-27T02:18:14;97666.63;;;16.35;54.48
14383;BME280;7275;50.328;8.720;2022-09-27T02:20:48;97683.88;;;16.41;54.51
14383;BME280;7275;50.328;8.720;2022-09-27T02:23:20;97684.41;;;16.44;54.55
14383;BME280;7275;50.328;8.720;2022-09-27T02:25:53;97687.66;;;16.48;54.48
14383;BME280;7275;50.328;8.720;2022-09-27T02:28:24;97681.31;;;16.49;54.46
14383;BME280;7275;50.328;8.720;2022-09-27T02:30:55;97676.00;;;16.49;54.27
14383;BME280;7275;50.328;8.720;2022-09-27T02:33:27;97674.22;;;16.49;54.41
14383;BME280;7275;50.328;8.720;2022-09-27T02:35:56;97686.28;;;16.53;54.36
14383;BME280;7275;50.328;8.720;2022-09-27T02:38:23;97687.94;;;16.54;53.99
14383;BME280;7275;50.328;8.720;2022-09-27T02:40:52;97696.78;;;16.55;54.05
14383;BME280;7275;50.328;8.720;2022-09-27T02:43:20;97693.16;;;16.56;53.97
14383;BME280;7275;50.328;8.720;2022-09-27T02:46:02;97692.31;;;16.55;53.96
14383;BME280;7275;50.328;8.720;2022-09-27T02:48:39;97691.59;;;16.53;53.87
14383;BME280;7275;50.328;8.720;2022-09-27T02:51:22;97696.78;;;16.55;53.84
14383;BME280;7275;50.328;8.720;2022-09-27T02:54:03;97697.09;;;16.52;53.95
14383;BME280;7275;50.328;8.720;2022-09-27T02:56:42;97705.22;;;16.50;53.77
14383;BME280;7275;50.328;8.720;2022-09-27T02:59:19;97699.06;;;16.50;53.67
14383;BME280;7275;50.328;8.720;2022-09-27T03:01:56;97705.09;;;16.52;53.77
14383;BME280;7275;50.328;8.720;2022-09-27T03:04:33;97710.44;;;16.52;53.72
14383;BME280;7275;50.328;8.720;2022-09-27T03:07:02;97710.44;;;16.52;53.61
14383;BME280;7275;50.328;8.720;2022-09-27T03:09:41;97703.53;;;16.49;53.52
14383;BME280;7275;50.328;8.720;2022-09-27T03:12:10;97708.16;;;16.47;53.53
14383;BME280;7275;50.328;8.720;2022-09-27T03:14:37;97703.78;;;16.46;53.68
14383;BME280;7275;50.328;8.720;2022-09-27T03:17:05;97709.13;;;16.46;53.48
14383;BME280;7275;50.328;8.720;2022-09-27T03:19:34;97718.13;;;16.45;53.30
14383;BME280;7275;50.328;8.720;2022-09-27T03:22:02;97725.28;;;16.45;53.52
14383;BME280;7275;50.328;8.720;2022-09-27T03:24:29;97725.41;;;16.43;53.36
14383;BME280;7275;50.328;8.720;2022-09-27T03:26:57;97726.25;;;16.44;53.53
14383;BME280;7275;50.328;8.720;2022-09-27T03:29:24;97719.09;;;16.44;53.27
14383;BME280;7275;50.328;8.720;2022-09-27T03:31:53;97718.25;;;16.44;53.23
14383;BME280;7275;50.328;8.720;2022-09-27T03:34:20;97730.75;;;16.43;53.12
14383;BME280;7275;50.328;8.720;2022-09-27T03:36:49;97733.53;;;16.42;53.08
14383;BME280;7275;50.328;8.720;2022-09-27T03:39:17;97737.22;;;16.41;53.04
14383;BME280;7275;50.328;8.720;2022-09-27T03:41:45;97737.47;;;16.38;53.11
14383;BME280;7275;50.328;8.720;2022-09-27T03:44:13;97734.97;;;16.36;53.09
14383;BME280;7275;50.328;8.720;2022-09-27T03:46:40;97728.94;;;16.34;53.14
14383;BME280;7275;50.328;8.720;2022-09-27T03:49:08;97727.38;;;16.32;53.15
14383;BME280;7275;50.328;8.720;2022-09-27T03:51:36;97729.19;;;16.31;52.83
14383;BME280;7275;50.328;8.720;2022-09-27T03:54:05;97733.81;;;16.29;53.03
14383;BME280;7275;50.328;8.720;2022-09-27T03:56:32;97727.69;;;16.29;53.10
14383;BME280;7275;50.328;8.720;2022-09-27T03:59:00;97725.28;;;16.26;52.85
14383;BME280;7275;50.328;8.720;2022-09-27T04:01:27;97726.38;;;16.23;52.75
14383;BME280;7275;50.328;8.720;2022-09-27T04:03:55;97724.88;;;16.21;52.85
14383;BME280;7275;50.328;8.720;2022-09-27T04:06:23;97722.31;;;16.19;52.82
14383;BME280;7275;50.328;8.720;2022-09-27T04:08:52;97729.63;;;16.17;52.92
14383;BME280;7275;50.328;8.720;2022-09-27T04:11:21;97741.28;;;16.16;52.83
14383;BME280;7275;50.328;8.720;2022-09-27T04:13:49;97742.84;;;16.19;52.84
14383;BME280;7275;50.328;8.720;2022-09-27T04:16:16;97734.00;;;16.18;52.60
14383;BME280;7275;50.328;8.720;2022-09-27T04:18:44;97741.13;;;16.18;52.85
14383;BME280;7275;50.328;8.720;2022-09-27T04:21:12;97744.78;;;16.17;52.85
14383;BME280;7275;50.328;8.720;2022-09-27T04:23:39;97748.44;;;16.16;52.68
14383;BME280;7275;50.328;8.720;2022-09-27T04:26:07;97745.63;;;16.17;52.71
14383;BME280;7275;50.328;8.720;2022-09-27T04:28:36;97753.63;;;16.17;52.85
14383;BME280;7275;50.328;8.720;2022-09-27T04:31:04;97756.44;;;16.16;52.72
14383;BME280;7275;50.328;8.720;2022-09-27T04:33:31;97767.78;;;16.18;52.67
14383;BME280;7275;50.328;8.720;2022-09-27T04:35:59;97770.47;;;16.18;52.78
14383;BME280;7275;50.328;8.720;2022-09-27T04:38:44;97768.75;;;16.17;52.59
14383;BME280;7275;50.328;8.720;2022-09-27T04:41:13;97778.59;;;16.16;52.69
14383;BME280;7275;50.328;8.720;2022-09-27T04:43:42;97781.28;;;16.16;52.65
14383;BME280;7275;50.328;8.720;2022-09-27T04:46:10;97799.78;;;16.18;52.65
14383;BME280;7275;50.328;8.720;2022-09-27T04:48:37;97787.56;;;16.15;52.55
14383;BME280;7275;50.328;8.720;2022-09-27T04:51:05;97794.84;;;16.13;52.70
14383;BME280;7275;50.328;8.720;2022-09-27T04:53:32;97798.53;;;16.12;52.61
14383;BME280;7275;50.328;8.720;2022-09-27T04:56:01;97805.66;;;16.12;52.66
14383;BME280;7275;50.328;8.720;2022-09-27T04:58:31;97808.47;;;16.10;52.65
14383;BME280;7275;50.328;8.720;2022-09-27T05:01:02;97807.88;;;16.07;52.67
14383;BME280;7275;50.328;8.720;2022-09-27T05:03:30;97809.75;;;16.06;52.77
14383;BME280;7275;50.328;8.720;2022-09-27T05:05:58;97813.38;;;16.05;52.82
14383;BME280;7275;50.328;8.720;2022-09-27T05:08:26;97820.50;;;16.05;52.73
14383;BME280;7275;50.328;8.720;2022-09-27T05:10:54;97823.31;;;16.03;52.85
14383;BME280;7275;50.328;8.720;2022-09-27T05:13:22;97821.78;;;16.00;52.73
14383;BME280;7275;50.328;8.720;2022-09-27T05:15:49;97818.41;;;15.98;52.76
14383;BME280;7275;50.328;8.720;2022-09-27T05:18:18;97820.22;;;15.98;52.69
14383;BME280;7275;50.328;8.720;2022-09-27T05:20:46;97822.31;;;15.94;52.84
14383;BME280;7275;50.328;8.720;2022-09-27T05:23:14;97822.31;;;15.94;53.02
14383;BME280;7275;50.328;8.720;2022-09-27T05:25:41;97818.69;;;15.95;52.76
14383;BME280;7275;50.328;8.720;2022-09-27T05:28:09;97835.25;;;15.99;52.76
14383;BME280;7275;50.328;8.720;2022-09-27T05:30:36;97828.09;;;15.99;52.59
14383;BME280;7275;50.328;8.720;2022-09-27T05:33:05;97841.41;;;15.99;52.61
14383;BME280;7275;50.328;8.720;2022-09-27T05:35:34;97831.56;;;16.00;52.66
14383;BME280;7275;50.328;8.720;2022-09-27T05:38:03;97832.84;;;15.96;52.52
14383;BME280;7275;50.328;8.720;2022-09-27T05:40:31;97841.81;;;15.95;52.63
14383;BME280;7275;50.328;8.720;2022-09-27T05:43:08;97841.97;;;15.93;52.66
14383;BME280;7275;50.328;8.720;2022-09-27T05:45:35;97850.78;;;15.94;52.69
14383;BME280;7275;50.328;8.720;2022-09-27T05:48:04;97856.00;;;15.95;52.62
14383;BME280;7275;50.328;8.720;2022-09-27T05:50:31;97862.16;;;15.96;52.64
14383;BME280;7275;50.328;8.720;2022-09-27T05:53:00;97855.00;;;15.96;52.64
14383;BME280;7275;50.328;8.720;2022-09-27T05:55:28;97856.69;;;15.97;52.61
14383;BME280;7275;50.328;8.720;2022-09-27T05:57:57;97864.69;;;15.97;52.65
14383;BME280;7275;50.328;8.720;2022-09-27T06:00:26;97862.84;;;15.98;52.57
14383;BME280;7275;50.328;8.720;2022-09-27T06:02:55;97862.84;;;15.98;52.61
14383;BME280;7275;50.328;8.720;2022-09-27T06:05:25;97868.78;;;16.02;52.55
14383;BME280;7275;50.328;8.720;2022-09-27T06:07:57;97865.97;;;16.03;52.75
14383;BME280;7275;50.328;8.720;2022-09-27T06:10:27;97864.00;;;16.05;52.65
14383;BME280;7275;50.328;8.720;2022-09-27T06:12:58;97867.22;;;16.09;52.67
14383;BME280;7275;50.328;8.720;2022-09-27T06:15:26;97870.59;;;16.11;52.60
14383;BME280;7275;50.328;8.720;2022-09-27T06:17:53;97872.31;;;16.12;52.52
14383;BME280;7275;50.328;8.720;2022-09-27T06:20:21;97870.50;;;16.12;52.55
14383;BME280;7275;50.328;8.720;2022-09-27T06:22:49;97879.31;;;16.13;52.56
14383;BME280;7275;50.328;8.720;2022-09-27T06:25:19;97885.50;;;16.13;52.64
14383;BME280;7275;50.328;8.720;2022-09-27T06:27:48;97885.22;;;16.16;52.57
14383;BME280;7275;50.328;8.720;2022-09-27T06:30:16;97896.59;;;16.18;52.60
14383;BME280;7275;50.328;8.720;2022-09-27T06:32:46;97899.13;;;16.20;52.54
14383;BME280;7275;50.328;8.720;2022-09-27T06:35:13;97897.03;;;16.23;52.64
14383;BME280;7275;50.328;8.720;2022-09-27T06:37:41;97901.94;;;16.28;52.58
14383;BME280;7275;50.328;8.720;2022-09-27T06:40:09;97908.69;;;16.32;52.37
14383;BME280;7275;50.328;8.720;2022-09-27T06:42:36;97906.88;;;16.32;52.37
14383;BME280;7275;50.328;8.720;2022-09-27T06:45:07;97919.09;;;16.35;52.20
14383;BME280;7275;50.328;8.720;2022-09-27T06:47:35;97919.09;;;16.35;52.49
14383;BME280;7275;50.328;8.720;2022-09-27T06:50:04;97921.47;;;16.38;51.98
14383;BME280;7275;50.328;8.720;2022-09-27T06:52:32;97927.41;;;16.41;52.21
14383;BME280;7275;50.328;8.720;2022-09-27T06:55:00;97936.66;;;16.47;52.36
14383;BME280;7275;50.328;8.720;2022-09-27T06:57:28;97937.97;;;16.52;52.16
14383;BME280;7275;50.328;8.720;2022-09-27T07:00:14;97941.63;;;16.51;52.02
14383;BME280;7275;50.328;8.720;2022-09-27T07:02:52;97953.00;;;16.53;52.08
14383;BME280;7275;50.328;8.720;2022-09-27T07:05:26;97953.72;;;16.55;51.83
14383;BME280;7275;50.328;8.720;2022-09-27T07:07:55;97958.75;;;16.58;51.95
14383;BME280;7275;50.328;8.720;2022-09-27T07:10:25;97964.09;;;16.58;51.64
14383;BME280;7275;50.328;8.720;2022-09-27T07:12:52;97963.97;;;16.60;51.74
14383;BME280;7275;50.328;8.720;2022-09-27T07:15:22;97975.34;;;16.62;51.73
14383;BME280;7275;50.328;8.720;2022-09-27T07:17:55;97978.16;;;16.60;51.72
14383;BME280;7275;50.328;8.720;2022-09-27T07:20:23;97976.47;;;16.59;51.61
14383;BME280;7275;50.328;8.720;2022-09-27T07:22:51;97995.13;;;16.59;51.53
14383;BME280;7275;50.328;8.720;2022-09-27T07:25:19;97984.63;;;16.58;51.47
14383;BME280;7275;50.328;8.720;2022-09-27T07:27:46;97984.47;;;16.59;51.43
14383;BME280;7275;50.328;8.720;2022-09-27T07:30:15;97978.28;;;16.59;51.36
14383;BME280;7275;50.328;8.720;2022-09-27T07:32:44;97978.28;;;16.59;51.52
14383;BME280;7275;50.328;8.720;2022-09-27T07:35:12;97980.53;;;16.63;51.28
14383;BME280;7275;50.328;8.720;2022-09-27T07:37:41;97975.66;;;16.68;51.54
14383;BME280;7275;50.328;8.720;2022-09-27T07:40:10;97981.41;;;16.73;51.31
14383;BME280;7275;50.328;8.720;2022-09-27T07:42:38;97988.84;;;16.79;51.31
14383;BME280;7275;50.328;8.720;2022-09-27T07:45:08;98001.09;;;16.82;51.24
14383;BME280;7275;50.328;8.720;2022-09-27T07:47:37;97995.47;;;16.85;51.13
14383;BME280;7275;50.328;8.720;2022-09-27T07:50:07;97997.00;;;16.88;51.03
14383;BME280;7275;50.328;8.720;2022-09-27T07:52:38;98007.41;;;16.91;51.09
14383;BME280;7275;50.328;8.720;2022-09-27T07:55:07;98014.03;;;16.96;51.10
14383;BME280;7275;50.328;8.720;2022-09-27T07:57:34;98018.25;;;16.99;50.82
14383;BME280;7275;50.328;8.720;2022-09-27T08:00:03;98029.50;;;17.02;50.97
14383;BME280;7275;50.328;8.720;2022-09-27T08:02:31;98034.41;;;17.07;50.65
14383;BME280;7275;50.328;8.720;2022-09-27T08:04:59;98035.72;;;17.12;50.83
14383;BME280;7275;50.328;8.720;2022-09-27T08:07:28;98032.59;;;17.17;50.74
14383;BME280;7275;50.328;8.720;2022-09-27T08:09:58;98030.91;;;17.25;50.63
14383;BME280;7275;50.328;8.720;2022-09-27T08:12:26;98038.66;;;17.38;50.71
14383;BME280;7275;50.328;8.720;2022-09-27T08:14:53;98045.84;;;17.47;50.44
14383;BME280;7275;50.328;8.720;2022-09-27T08:17:23;98045.88;;;17.56;50.39
14383;BME280;7275;50.328;8.720;2022-09-27T08:19:51;98044.06;;;17.67;50.41
14383;BME280;7275;50.328;8.720;2022-09-27T08:22:19;98052.91;;;17.77;50.05
14383;BME280;7275;50.328;8.720;2022-09-27T08:24:48;98041.50;;;17.84;49.93
14383;BME280;7275;50.328;8.720;2022-09-27T08:27:16;98042.63;;;17.91;49.86
14383;BME280;7275;50.328;8.720;2022-09-27T08:29:43;98046.53;;;17.97;49.38
14383;BME280;7275;50.328;8.720;2022-09-27T08:32:11;98057.22;;;17.97;49.33
14383;BME280;7275;50.328;8.720;2022-09-27T08:34:39;98052.72;;;17.97;49.25
14383;BME280;7275;50.328;8.720;2022-09-27T08:37:07;98060.44;;;18.00;49.33
14383;BME280;7275;50.328;8.720;2022-09-27T08:39:34;98064.56;;;18.04;49.11
14383;BME280;7275;50.328;8.720;2022-09-27T08:42:11;98058.75;;;18.09;49.06
14383;BME280;7275;50.328;8.720;2022-09-27T08:44:48;98057.47;;;18.13;48.94
14383;BME280;7275;50.328;8.720;2022-09-27T08:47:23;98062.28;;;18.19;48.92
14383;BME280;7275;50.328;8.720;2022-09-27T08:49:54;98070.69;;;18.24;48.89
14383;BME280;7275;50.328;8.720;2022-09-27T08:52:27;98064.31;;;18.34;48.75
14383;BME280;7275;50.328;8.720;2022-09-27T08:54:57;98076.97;;;18.42;48.80
14383;BME280;7275;50.328;8.720;2022-09-27T08:57:28;98073.75;;;18.48;48.37
14383;BME280;7275;50.328;8.720;2022-09-27T09:00:02;98081.63;;;18.50;48.30
14383;BME280;7275;50.328;8.720;2022-09-27T09:02:31;98085.97;;;18.51;48.08
14383;BME280;7275;50.328;8.720;2022-09-27T09:05:04;98082.31;;;18.52;48.09
14383;BME280;7275;50.328;8.720;2022-09-27T09:07:50;98078.53;;;18.54;48.13
14383;BME280;7275;50.328;8.720;2022-09-27T09:10:35;98089.34;;;18.62;48.10
14383;BME280;7275;50.328;8.720;2022-09-27T09:13:39;98084.63;;;18.74;48.26
14383;BME280;7275;50.328;8.720;2022-09-27T09:16:18;98092.88;;;18.90;47.97
14383;BME280;7275;50.328;8.720;2022-09-27T09:18:59;98080.06;;;19.11;47.89
14383;BME280;7275;50.328;8.720;2022-09-27T09:21:41;98083.31;;;19.42;47.59
14383;BME280;7275;50.328;8.720;2022-09-27T09:24:29;98074.97;;;19.62;47.27
14383;BME280;7275;50.328;8.720;2022-09-27T09:27:07;98079.31;;;19.81;46.96
14383;BME280;7275;50.328;8.720;2022-09-27T09:29:56;98080.97;;;20.00;46.82
14383;BME280;7275;50.328;8.720;2022-09-27T09:32:33;98089.16;;;20.16;46.39
14383;BME280;7275;50.328;8.720;2022-09-27T09:35:09;98090.94;;;20.25;46.04
14383;BME280;7275;50.328;8.720;2022-09-27T09:37:41;98082.63;;;20.36;45.94
14383;BME280;7275;50.328;8.720;2022-09-27T09:40:17;98085.41;;;20.52;45.89
14383;BME280;7275;50.328;8.720;2022-09-27T09:42:51;98079.13;;;20.69;45.50
14383;BME280;7275;50.328;8.720;2022-09-27T09:45:25;98077.34;;;20.78;45.26
14383;BME280;7275;50.328;8.720;2022-09-27T09:47:59;98085.06;;;20.81;44.99
14383;BME280;7275;50.328;8.720;2022-09-27T09:50:34;98077.94;;;20.71;44.40
14383;BME280;7275;50.328;8.720;2022-09-27T09:53:11;98072.84;;;20.52;44.44
14383;BME280;7275;50.328;8.720;2022-09-27T09:55:43;98076.75;;;20.40;44.72
14383;BME280;7275;50.328;8.720;2022-09-27T09:58:20;98072.66;;;20.28;44.46
14383;BME280;7275;50.328;8.720;2022-09-27T10:00:53;98065.00;;;20.16;44.69
14383;BME280;7275;50.328;8.720;2022-09-27T10:03:22;98077.22;;;20.10;44.86
14383;BME280;7275;50.328;8.720;2022-09-27T10:05:50;98080.06;;;20.09;44.92
14383;BME280;7275;50.328;8.720;2022-09-27T10:08:20;98067.97;;;20.05;44.99
14383;BME280;7275;50.328;8.720;2022-09-27T10:10:48;98082.88;;;20.07;44.83
14383;BME280;7275;50.328;8.720;2022-09-27T10:13:17;98079.66;;;20.04;44.80
14383;BME280;7275;50.328;8.720;2022-09-27T10:15:52;98077.44;;;19.99;44.75
14383;BME280;7275;50.328;8.720;2022-09-27T10:18:22;98077.59;;;19.98;45.04
14383;BME280;7275;50.328;8.720;2022-09-27T10:20:55;98068.88;;;19.96;44.99
14383;BME280;7275;50.328;8.720;2022-09-27T10:23:23;98069.84;;;19.94;45.00
14383;BME280;7275;50.328;8.720;2022-09-27T10:25:53;98061.81;;;19.94;45.06
14383;BME280;7275;50.328;8.720;2022-09-27T10:28:30;98058.50;;;20.01;45.03
14383;BME280;7275;50.328;8.720;2022-09-27T10:31:02;98055.97;;;20.17;45.35
14383;BME280;7275;50.328;8.720;2022-09-27T10:33:31;98057.28;;;20.38;45.24
14383;BME280;7275;50.328;8.720;2022-09-27T10:36:00;98056.09;;;20.58;44.99
14383;BME280;7275;50.328;8.720;2022-09-27T10:38:29;98064.22;;;20.75;44.39
14383;BME280;7275;50.328;8.720;2022-09-27T10:41:14;98064.03;;;20.76;44.48
14383;BME280;7275;50.328;8.720;2022-09-27T10:43:43;98066.59;;;20.78;44.41
14383;BME280;7275;50.328;8.720;2022-09-27T10:46:23;98067.56;;;20.77;44.21
14383;BME280;7275;50.328;8.720;2022-09-27T10:49:07;98064.34;;;20.65;44.21
14383;BME280;7275;50.328;8.720;2022-09-27T10:51:35;98064.63;;;20.54;43.88
14383;BME280;7275;50.328;8.720;2022-09-27T10:54:03;98057.84;;;20.42;43.90
14383;BME280;7275;50.328;8.720;2022-09-27T10:56:32;98065.75;;;20.26;43.81
14383;BME280;7275;50.328;8.720;2022-09-27T10:59:01;98055.34;;;20.05;43.88
14383;BME280;7275;50.328;8.720;2022-09-27T11:01:40;98049.50;;;19.84;44.13
14383;BME280;7275;50.328;8.720;2022-09-27T11:04:18;98054.44;;;19.71;44.56
14383;BME280;7275;50.328;8.720;2022-09-27T11:06:47;98055.41;;;19.70;45.01
14383;BME280;7275;50.328;8.720;2022-09-27T11:09:20;98052.09;;;19.76;45.04
14383;BME280;7275;50.328;8.720;2022-09-27T11:12:05;98049.50;;;19.84;45.40
14383;BME280;7275;50.328;8.720;2022-09-27T11:14:34;98041.16;;;19.87;44.97
14383;BME280;7275;50.328;8.720;2022-09-27T11:17:09;98048.34;;;19.86;45.10
14383;BME280;7275;50.328;8.720;2022-09-27T11:19:53;98044.22;;;19.92;45.29
14383;BME280;7275;50.328;8.720;2022-09-27T11:22:36;98049.47;;;20.02;45.28
14383;BME280;7275;50.328;8.720;2022-09-27T11:25:16;98056.13;;;20.41;45.44
14383;BME280;7275;50.328;8.720;2022-09-27T11:27:58;98045.59;;;21.07;44.81
14383;BME280;7275;50.328;8.720;2022-09-27T11:30:37;98031.91;;;21.74;44.23
14383;BME280;7275;50.328;8.720;2022-09-27T11:33:38;98022.09;;;22.46;44.32
14383;BME280;7275;50.328;8.720;2022-09-27T11:36:12;98016.91;;;22.91;43.09
14383;BME280;7275;50.328;8.720;2022-09-27T11:38:54;98017.88;;;23.29;42.40
14383;BME280;7275;50.328;8.720;2022-09-27T11:41:45;98005.28;;;23.52;42.17
14383;BME280;7275;50.328;8.720;2022-09-27T11:44:24;98012.47;;;23.59;41.78
14383;BME280;7275;50.328;8.720;2022-09-27T11:47:06;98009.16;;;23.49;41.26
14383;BME280;7275;50.328;8.720;2022-09-27T11:49:57;98011.13;;;23.33;40.94
14383;BME280;7275;50.328;8.720;2022-09-27T11:52:42;98000.56;;;23.23;41.15
14383;BME280;7275;50.328;8.720;2022-09-27T11:55:32;98009.75;;;23.06;41.04
14383;BME280;7275;50.328;8.720;2022-09-27T11:58:07;98000.97;;;22.81;40.68
14383;BME280;7275;50.328;8.720;2022-09-27T12:00:51;98006.75;;;22.54;41.19
14383;BME280;7275;50.328;8.720;2022-09-27T12:03:42;98001.75;;;22.35;40.88
14383;BME280;7275;50.328;8.720;2022-09-27T12:06:16;98000.41;;;22.39;41.24
14383;BME280;7275;50.328;8.720;2022-09-27T12:08:56;98003.06;;;22.63;41.44
14383;BME280;7275;50.328;8.720;2022-09-27T12:11:26;98006.44;;;22.96;41.39
14383;BME280;7275;50.328;8.720;2022-09-27T12:13:59;97993.66;;;23.21;41.23
14383;BME280;7275;50.328;8.720;2022-09-27T12:16:29;97990.25;;;23.27;40.90
14383;BME280;7275;50.328;8.720;2022-09-27T12:18:58;97998.50;;;23.33;40.52
14383;BME280;7275;50.328;8.720;2022-09-27T12:21:30;98002.84;;;23.42;40.74
14383;BME280;7275;50.328;8.720;2022-09-27T12:24:00;98003.56;;;23.36;40.29
14383;BME280;7275;50.328;8.720;2022-09-27T12:26:33;97987.78;;;23.17;40.32
14383;BME280;7275;50.328;8.720;2022-09-27T12:29:08;97998.69;;;22.93;40.30
14383;BME280;7275;50.328;8.720;2022-09-27T12:31:42;97994.28;;;22.69;40.77
14383;BME280;7275;50.328;8.720;2022-09-27T12:34:15;97990.09;;;22.51;40.88
14383;BME280;7275;50.328;8.720;2022-09-27T12:36:50;97985.72;;;22.50;41.09
14383;BME280;7275;50.328;8.720;2022-09-27T12:39:22;97983.69;;;22.60;41.08
14383;BME280;7275;50.328;8.720;2022-09-27T12:41:54;97987.78;;;22.86;41.13
14383;BME280;7275;50.328;8.720;2022-09-27T12:44:27;97985.38;;;23.22;41.26
14383;BME280;7275;50.328;8.720;2022-09-27T12:47:03;97979.44;;;23.57;40.48
14383;BME280;7275;50.328;8.720;2022-09-27T12:49:41;97984.81;;;23.80;40.37
14383;BME280;7275;50.328;8.720;2022-09-27T12:52:17;97973.41;;;23.93;39.92
14383;BME280;7275;50.328;8.720;2022-09-27T12:55:06;97978.22;;;23.97;39.91
14383;BME280;7275;50.328;8.720;2022-09-27T12:57:44;97976.94;;;23.93;39.91
14383;BME280;7275;50.328;8.720;2022-09-27T13:00:17;97974.84;;;23.80;39.28
14383;BME280;7275;50.328;8.720;2022-09-27T13:03:22;97972.19;;;23.58;39.58
14383;BME280;7275;50.328;8.720;2022-09-27T13:06:20;97972.84;;;23.37;39.71
14383;BME280;7275;50.328;8.720;2022-09-27T13:09:01;97973.28;;;23.18;39.40
14383;BME280;7275;50.328;8.720;2022-09-27T13:11:44;97970.88;;;23.00;39.54
14383;BME280;7275;50.328;8.720;2022-09-27T13:14:17;97978.38;;;22.82;39.65
14383;BME280;7275;50.328;8.720;2022-09-27T13:16:46;97968.53;;;22.67;39.57
14383;BME280;7275;50.328;8.720;2022-09-27T13:19:37;97969.38;;;22.51;39.25
14383;BME280;7275;50.328;8.720;2022-09-27T13:22:06;97971.81;;;22.38;39.45
14383;BME280;7275;50.328;8.720;2022-09-27T13:24:46;97960.06;;;22.23;39.43
14383;BME280;7275;50.328;8.720;2022-09-27T13:27:37;97968.19;;;22.07;39.36
14383;BME280;7275;50.328;8.720;2022-09-27T13:33:32;97977.44;;;21.72;39.29
14383;BME280;7275;50.328;8.720;2022-09-27T13:38:57;97977.59;;;21.38;39.37
14383;BME280;7275;50.328;8.720;2022-09-27T13:41:41;97973.72;;;21.25;39.58
14383;BME280;7275;50.328;8.720;2022-09-27T13:44:23;97988.00;;;21.25;39.74